Ashfield, Pennsylvania
Current Conditions -  °F | °C
As of 2:51 AM on Friday 19 Dec 2014 (Local Time) from KABE Reporting Station
Overcast Overcast  
Wind Chill: 31°   Ceiling: 3000
Heat Index: 36°   Visibility: 10mi
Dew Point: 24°   Wind: 6mph
Humidity: 62%   Direction: 300°WNW
Pressure: 30.01"   Gusts: NA
Location:  40.78°N, 75.71°W
Report Text: KABE 190751Z AUTO 30005KT 10SM OVC030 02/M04 A3001 RMK AO2 SLP166 T00221044 TSNO
Loading
Personal Weather Stations






























Interactive Weather Map New forecast layout! Learn more

10-Day Weather Forecast

Advertisements
Track Severe Weather on mobile